Time;durP1;ratioP1;P1;durP2;ratioP2;P2;SDS_P1;SDS_P2;PMS_P1;PMS_P2;Temp;Humidity;BMP_temperature;BMP_pressure;BME280_temperature;BME280_humidity;BME280_pressure;Samples;Min_cycle;Max_cycle;Signal;HPM_P1;HPM_P2
2022/05/05 00:03:40;;;;;;;6.30;5.30;;;;;;;11.81;56.65;100099.09;214376;1274;140484;-66
2022/05/05 00:08:41;;;;;;;7.00;4.40;;;;;;;11.82;56.89;100095.86;215401;1274;142081;-68
2022/05/05 00:19:06;;;;;;;7.10;5.30;;;;;;;11.79;56.56;100093.75;213746;1275;140484;-69
2022/05/05 00:24:09;;;;;;;6.10;4.80;;;;;;;11.74;56.79;100097.75;214216;1274;140478;-68
2022/05/05 00:29:12;;;;;;;4.90;3.80;;;;;;;11.71;56.84;100098.63;213104;1275;140385;-69
2022/05/05 00:34:16;;;;;;;8.50;5.40;;;;;;;11.66;56.81;100093.45;213777;1274;142304;-71
2022/05/05 00:39:22;;;;;;;5.30;4.70;;;;;;;11.59;56.67;100092.75;213492;1274;140326;-71
2022/05/05 00:44:25;;;;;;;4.60;4.20;;;;;;;11.53;56.61;100097.52;214178;1274;140046;-70
2022/05/05 00:49:29;;;;;;;10.30;5.20;;;;;;;11.46;56.61;100096.23;214649;1274;140059;-71
2022/05/05 00:54:32;;;;;;;6.60;4.00;;;;;;;11.40;56.68;100093.70;214700;1274;140867;-72
2022/05/05 00:59:35;;;;;;;9.90;5.60;;;;;;;11.34;56.59;100092.17;214028;1274;141651;-67
2022/05/05 01:04:38;;;;;;;9.20;4.50;;;;;;;11.29;56.63;100089.06;213969;1274;139982;-71
2022/05/05 01:09:41;;;;;;;7.80;4.40;;;;;;;11.25;56.81;100087.52;213032;1274;139928;-68
2022/05/05 01:14:44;;;;;;;5.40;4.70;;;;;;;11.20;56.82;100086.83;214211;1275;234790;-68
2022/05/05 01:19:47;;;;;;;8.20;4.00;;;;;;;11.15;56.82;100084.34;215738;1274;141184;-72
2022/05/05 01:30:13;;;;;;;3.80;3.20;;;;;;;11.07;56.95;100081.31;215888;1274;140046;-72
2022/05/05 01:35:15;;;;;;;4.50;3.80;;;;;;;11.01;56.96;100074.88;215711;1274;140297;-72
2022/05/05 01:40:22;;;;;;;4.40;3.90;;;;;;;10.96;56.97;100072.79;215863;1274;140424;-73
2022/05/05 01:45:25;;;;;;;5.30;3.40;;;;;;;10.93;57.16;100072.80;216014;1274;139823;-67
2022/05/05 01:50:30;;;;;;;4.50;3.60;;;;;;;10.91;57.27;100068.11;216146;1274;139719;-72
2022/05/05 01:55:34;;;;;;;13.30;4.90;;;;;;;10.89;57.41;100066.91;213889;1275;144687;-69
2022/05/05 02:00:38;;;;;;;5.90;4.20;;;;;;;10.88;57.68;100068.15;214100;1276;141778;-70
2022/05/05 02:05:44;;;;;;;5.80;4.20;;;;;;;10.86;57.69;100068.52;214723;1275;140769;-70
2022/05/05 02:10:47;;;;;;;6.30;5.00;;;;;;;10.82;57.79;100071.47;213458;1274;141640;-70
2022/05/05 02:15:50;;;;;;;9.00;5.00;;;;;;;10.80;57.83;100070.56;213561;1276;140975;-71
2022/05/05 02:20:53;;;;;;;5.40;4.80;;;;;;;10.75;57.95;100074.69;213982;1276;142611;-71
2022/05/05 02:25:57;;;;;;;6.30;5.00;;;;;;;10.71;58.10;100075.01;213237;1275;141163;-71
2022/05/05 02:31:00;;;;;;;5.90;4.20;;;;;;;10.68;58.39;100072.18;213522;1274;141380;-71
2022/05/05 02:41:25;;;;;;;8.50;5.00;;;;;;;10.60;58.82;100072.71;213263;1274;141377;-70
2022/05/05 02:46:28;;;;;;;6.60;3.80;;;;;;;10.56;58.76;100076.90;214175;1274;142198;-68
2022/05/05 02:51:31;;;;;;;9.30;4.60;;;;;;;10.50;58.88;100077.43;213909;1274;140087;-69
2022/05/05 02:56:35;;;;;;;22.60;6.00;;;;;;;10.41;58.79;100078.29;214119;1274;142377;-68
2022/05/05 03:01:38;;;;;;;5.20;4.10;;;;;;;10.33;59.01;100083.45;213825;1274;141161;-73
2022/05/05 03:06:41;;;;;;;7.50;4.60;;;;;;;10.22;59.13;100084.51;213946;1274;141740;-74
2022/05/05 03:11:45;;;;;;;6.90;4.70;;;;;;;10.10;59.43;100084.10;215055;1274;140242;-73
2022/05/05 03:16:48;;;;;;;6.20;5.10;;;;;;;9.99;59.61;100084.16;215125;1274;141535;-72
2022/05/05 03:21:50;;;;;;;5.70;4.80;;;;;;;9.92;59.64;100086.80;214735;1274;139875;-71
2022/05/05 03:26:53;;;;;;;5.20;4.70;;;;;;;9.86;59.83;100088.38;216198;1274;141165;-69
2022/05/05 03:31:56;;;;;;;12.20;5.20;;;;;;;9.79;59.89;100090.70;214600;1274;143305;-70
2022/05/05 03:36:59;;;;;;;9.60;6.00;;;;;;;9.74;60.14;100090.65;215971;1274;141414;-69
2022/05/05 03:42:02;;;;;;;6.60;4.90;;;;;;;9.70;60.17;100093.39;216126;1274;141058;-68
2022/05/05 03:47:05;;;;;;;7.80;5.70;;;;;;;9.70;60.37;100099.21;216152;1274;141174;-70
2022/05/05 03:52:08;;;;;;;6.30;4.80;;;;;;;9.70;60.39;100102.36;214034;1274;142651;-70
2022/05/05 03:57:12;;;;;;;8.60;5.90;;;;;;;9.70;60.57;100100.55;214784;1274;143852;-70
2022/05/05 04:02:15;;;;;;;5.50;4.90;;;;;;;9.73;60.74;100104.46;213996;1276;142055;-68
2022/05/05 04:07:18;;;;;;;9.20;5.40;;;;;;;9.76;60.85;100112.17;213981;1274;141278;-68
2022/05/05 04:12:20;;;;;;;11.20;7.20;;;;;;;9.78;60.88;100113.20;213385;1274;150587;-71
2022/05/05 04:17:27;;;;;;;9.70;6.10;;;;;;;9.91;60.80;100111.27;213796;1274;142229;-70
2022/05/05 04:22:30;;;;;;;17.80;6.00;;;;;;;10.25;60.71;100115.45;213127;1275;140884;-69
2022/05/05 04:27:33;;;;;;;8.00;5.40;;;;;;;10.54;60.50;100111.73;215249;1274;141607;-67
2022/05/05 04:32:36;;;;;;;9.00;4.90;;;;;;;10.84;60.17;100112.48;213363;1275;141986;-68
2022/05/05 04:37:39;;;;;;;7.10;4.90;;;;;;;11.34;59.58;100119.06;213187;1274;141244;-68
2022/05/05 04:42:43;;;;;;;14.70;5.60;;;;;;;11.58;59.36;100115.86;214165;1276;141137;-66
2022/05/05 04:47:46;;;;;;;8.90;5.30;;;;;;;11.55;59.36;100119.20;214103;1274;140270;-69
2022/05/05 04:52:51;;;;;;;10.00;5.60;;;;;;;11.47;59.29;100120.57;214160;1274;139789;-70
2022/05/05 04:57:55;;;;;;;8.60;5.60;;;;;;;11.44;59.42;100123.04;215052;1274;140152;-66
2022/05/05 05:02:58;;;;;;;7.40;5.20;;;;;;;11.48;59.51;100117.86;214765;1274;140416;-67
2022/05/05 05:08:00;;;;;;;5.80;5.20;;;;;;;11.66;59.33;100120.37;214322;1274;163191;-67
2022/05/05 05:13:02;;;;;;;8.20;6.00;;;;;;;12.66;58.00;100117.13;214309;1274;142386;-69
2022/05/05 05:18:05;;;;;;;7.20;5.40;;;;;;;15.04;55.05;100111.77;213973;1274;143745;-68
2022/05/05 05:23:06;;;;;;;8.10;5.50;;;;;;;16.70;52.77;100108.60;214304;1274;141852;-68
2022/05/05 05:28:15;;;;;;;7.50;5.20;;;;;;;18.87;49.69;100108.38;213268;1275;140909;-70
2022/05/05 05:33:17;;;;;;;7.00;5.80;;;;;;;20.68;47.49;100104.31;215978;1274;140453;-72
2022/05/05 05:38:21;;;;;;;6.50;4.90;;;;;;;21.75;45.29;100106.03;215931;1274;142895;-72
2022/05/05 05:43:24;;;;;;;5.90;5.40;;;;;;;22.92;43.08;100111.17;216043;1274;140253;-71
2022/05/05 05:48:27;;;;;;;8.90;5.70;;;;;;;23.32;41.93;100116.63;214868;1274;141310;-69
2022/05/05 05:53:30;;;;;;;7.40;5.90;;;;;;;22.18;42.38;100123.14;216015;1274;140892;-70
2022/05/05 05:58:37;;;;;;;8.80;6.20;;;;;;;21.94;41.81;100126.35;213265;1274;142360;-68
2022/05/05 06:03:56;;;;;;;8.20;6.20;;;;;;;21.80;41.88;100127.22;214250;1274;140788;-70
2022/05/05 06:08:59;;;;;;;8.00;5.00;;;;;;;20.82;42.04;100129.99;214141;1274;140893;-70
2022/05/05 06:14:04;;;;;;;6.50;5.80;;;;;;;19.43;42.23;100131.86;213379;1274;142097;-70
2022/05/05 06:19:07;;;;;;;8.20;4.80;;;;;;;18.40;43.33;100124.89;214382;1274;143077;-70
2022/05/05 06:24:11;;;;;;;10.40;6.20;;;;;;;17.69;44.44;100130.48;213431;1274;141176;-70
2022/05/05 06:29:14;;;;;;;12.10;5.30;;;;;;;17.32;45.46;100129.85;214627;1274;141874;-70
2022/05/05 06:34:17;;;;;;;7.40;6.20;;;;;;;17.07;46.29;100131.45;214062;1274;140893;-71
2022/05/05 06:39:20;;;;;;;6.90;5.70;;;;;;;16.82;46.98;100132.05;213527;1274;141251;-68
2022/05/05 06:44:24;;;;;;;8.60;6.30;;;;;;;16.64;47.46;100128.48;213750;1274;140848;-71
2022/05/05 06:49:28;;;;;;;6.60;4.10;;;;;;;16.64;48.05;100130.69;213296;1274;141745;-72
2022/05/05 06:54:31;;;;;;;9.80;5.40;;;;;;;17.23;47.70;100132.08;213973;1274;141406;-69
2022/05/05 06:59:36;;;;;;;11.70;7.00;;;;;;;18.92;46.80;100126.30;213305;1274;141076;-69
2022/05/05 07:15:26;;;;;;;9.90;6.40;;;;;;;22.18;43.22;100128.84;213407;1274;141076;-71
2022/05/05 07:20:30;;;;;;;8.70;6.80;;;;;;;22.78;43.03;100132.81;214798;1274;140286;-68
2022/05/05 07:25:35;;;;;;;9.20;6.20;;;;;;;22.88;41.52;100127.05;214859;1274;140302;-69
2022/05/05 07:30:38;;;;;;;6.90;5.60;;;;;;;22.77;41.57;100136.90;215700;1274;140014;-68
2022/05/05 07:35:40;;;;;;;8.10;6.50;;;;;;;22.77;41.22;100142.41;215925;1274;140235;-67
2022/05/05 07:40:43;;;;;;;7.40;6.60;;;;;;;23.18;42.15;100145.49;215188;1274;139614;-66
2022/05/05 07:45:48;;;;;;;6.30;5.60;;;;;;;23.62;42.21;100145.63;215365;1274;141753;-68
2022/05/05 07:50:51;;;;;;;9.10;7.00;;;;;;;23.84;41.54;100145.82;215477;1274;542807;-65
2022/05/05 07:55:55;;;;;;;7.70;7.00;;;;;;;23.85;40.89;100147.74;215005;1274;139813;-66
2022/05/05 08:00:58;;;;;;;9.30;8.20;;;;;;;23.95;41.72;100154.07;213801;1276;139841;-66
2022/05/05 08:06:01;;;;;;;9.00;7.40;;;;;;;24.27;41.81;100152.35;214081;1274;140492;-66
2022/05/05 08:11:05;;;;;;;8.30;7.40;;;;;;;24.32;40.77;100152.14;213415;1274;140599;-71
2022/05/05 08:16:09;;;;;;;8.50;7.40;;;;;;;23.91;40.44;100154.95;213338;1274;140084;-71
2022/05/05 08:21:11;;;;;;;9.30;7.90;;;;;;;23.96;41.20;100156.02;214378;1274;139908;-71
2022/05/05 08:31:36;;;;;;;10.00;8.50;;;;;;;24.14;41.43;100155.02;213834;1274;206610;-75
2022/05/05 08:36:51;;;;;;;18.30;7.30;;;;;;;24.16;40.28;100158.38;213749;1274;141974;-70
2022/05/05 08:41:58;;;;;;;13.40;6.40;;;;;;;23.90;40.00;100160.52;213950;1274;143718;-72
2022/05/05 08:47:02;;;;;;;11.50;7.30;;;;;;;23.67;39.24;100156.49;213672;1274;143686;-72
2022/05/05 08:52:08;;;;;;;11.60;7.20;;;;;;;23.42;40.04;100154.51;213781;1274;141349;-72
2022/05/05 08:57:11;;;;;;;8.10;7.30;;;;;;;23.58;39.63;100156.98;214666;1274;141177;-69
2022/05/05 09:02:14;;;;;;;9.00;8.10;;;;;;;23.48;39.38;100153.20;213272;1274;140809;-72
2022/05/05 09:07:17;;;;;;;11.90;7.70;;;;;;;23.64;39.21;100150.40;213913;1274;141285;-72
2022/05/05 09:12:22;;;;;;;8.50;7.70;;;;;;;23.56;39.58;100152.36;214155;1274;142464;-71
2022/05/05 09:17:29;;;;;;;8.30;7.60;;;;;;;23.46;39.68;100153.90;214173;1274;141014;-70
2022/05/05 09:22:32;;;;;;;9.40;7.30;;;;;;;23.34;39.52;100155.02;215139;1274;140672;-67
2022/05/05 09:27:35;;;;;;;6.80;5.80;;;;;;;23.32;40.01;100155.94;213834;1274;141837;-71
2022/05/05 09:32:40;;;;;;;7.20;6.60;;;;;;;23.36;39.71;100158.01;216154;1274;140128;-77
2022/05/05 09:37:49;;;;;;;9.80;6.30;;;;;;;23.28;39.51;100157.05;215769;1274;140550;-69
2022/05/05 09:42:53;;;;;;;5.80;5.30;;;;;;;23.47;39.57;100157.27;215797;1274;140297;-66
2022/05/05 09:47:58;;;;;;;7.00;6.00;;;;;;;23.70;39.77;100150.64;216054;1274;140423;-65
2022/05/05 09:58:26;;;;;;;6.90;6.20;;;;;;;23.75;38.62;100150.68;215555;1274;139966;-70
2022/05/05 10:04:06;;;;;;;10.40;6.40;;;;;;;23.83;38.60;100149.34;214590;1274;139377;-73
2022/05/05 10:09:14;;;;;;;8.80;6.20;;;;;;;23.85;38.10;100152.58;214877;1274;140679;-71
2022/05/05 10:14:21;;;;;;;6.70;5.90;;;;;;;23.86;37.83;100152.20;214370;1274;140686;-70
2022/05/05 10:19:23;;;;;;;4.90;4.30;;;;;;;24.02;37.51;100149.75;214009;1274;140058;-68
2022/05/05 10:24:31;;;;;;;7.10;6.30;;;;;;;24.29;37.81;100146.40;213978;1274;141634;-68
2022/05/05 10:29:41;;;;;;;5.90;5.50;;;;;;;24.59;37.33;100148.20;213664;1274;140072;-69
2022/05/05 10:34:46;;;;;;;6.20;5.70;;;;;;;24.69;36.45;100139.04;214075;1274;140822;-78
2022/05/05 10:40:03;;;;;;;5.50;5.00;;;;;;;24.63;36.36;100134.89;213921;1274;139693;-75
2022/05/05 10:45:17;;;;;;;9.80;5.60;;;;;;;24.79;37.21;100129.21;214287;1274;139966;-68
2022/05/05 10:50:43;;;;;;;6.00;5.50;;;;;;;24.86;36.54;100127.52;213218;1274;140363;-79
2022/05/05 10:55:46;;;;;;;5.30;4.60;;;;;;;24.77;36.23;100122.58;214604;1274;140062;-74
2022/05/05 11:01:09;;;;;;;4.20;3.80;;;;;;;24.91;36.03;100120.80;214070;1274;141107;-70
2022/05/05 11:06:16;;;;;;;12.50;4.30;;;;;;;24.90;35.08;100120.33;214085;1274;139665;-77
2022/05/05 11:22:06;;;;;;;4.50;4.20;;;;;;;25.05;34.03;100116.02;214874;1274;140053;-69
2022/05/05 11:27:11;;;;;;;4.20;3.70;;;;;;;25.19;34.02;100108.90;215593;1274;141778;-74
2022/05/05 11:32:13;;;;;;;8.10;4.50;;;;;;;25.24;34.20;100111.46;215692;1274;140803;-76
2022/05/05 11:37:18;;;;;;;4.50;4.20;;;;;;;25.27;33.58;100105.76;216081;1274;140924;-77
2022/05/05 11:42:21;;;;;;;5.80;5.40;;;;;;;25.13;33.63;100112.09;215797;1274;139868;-73
2022/05/05 11:47:24;;;;;;;5.30;4.10;;;;;;;25.19;33.70;100110.54;215342;1274;140562;-75
2022/05/05 11:52:27;;;;;;;3.60;3.40;;;;;;;25.12;34.00;100110.20;214055;1274;139949;-72
2022/05/05 11:57:40;;;;;;;12.10;4.00;;;;;;;25.00;33.92;100108.86;214229;1274;139974;-70
2022/05/05 12:02:42;;;;;;;5.40;4.30;;;;;;;25.03;33.65;100104.46;214487;1274;140796;-70
2022/05/05 12:07:52;;;;;;;7.00;4.40;;;;;;;24.89;33.55;100099.26;214874;1274;139778;-71
2022/05/05 12:13:01;;;;;;;5.30;4.90;;;;;;;24.85;33.74;100099.36;213273;1274;139730;-70
2022/05/05 12:18:15;;;;;;;8.30;4.90;;;;;;;25.01;33.74;100093.39;214375;1274;139709;-70
2022/05/05 12:23:23;;;;;;;4.00;3.70;;;;;;;25.07;32.99;100091.27;213810;1274;139731;-70
2022/05/05 12:28:32;;;;;;;4.40;4.10;;;;;;;24.92;33.28;100087.20;213152;1274;140436;-69
2022/05/05 12:33:38;;;;;;;4.90;4.50;;;;;;;25.11;33.18;100077.55;213100;1274;140548;-70
2022/05/05 12:38:40;;;;;;;4.70;4.20;;;;;;;25.31;33.04;100071.66;214438;1274;143353;-74
2022/05/05 12:43:45;;;;;;;8.30;4.10;;;;;;;25.35;32.77;100066.67;213370;1274;139964;-73
2022/05/05 12:48:53;;;;;;;5.10;4.40;;;;;;;25.32;32.25;100066.46;213598;1274;139765;-71
2022/05/05 12:59:36;;;;;;;3.90;3.60;;;;;;;25.13;32.89;100062.74;215094;1274;141377;-72
2022/05/05 13:04:40;;;;;;;3.90;3.70;;;;;;;25.10;32.66;100056.14;213458;1274;139599;-73
2022/05/05 13:09:43;;;;;;;3.60;3.40;;;;;;;25.07;33.08;100055.09;213747;1274;139915;-70
2022/05/05 13:14:46;;;;;;;5.70;4.60;;;;;;;24.60;32.69;100056.98;215502;1274;139585;-78
2022/05/05 13:19:49;;;;;;;5.00;4.40;;;;;;;24.35;33.55;100056.64;215215;1274;139680;-71
2022/05/05 13:24:53;;;;;;;5.10;4.80;;;;;;;24.04;32.89;100063.23;214242;1272;141170;-73
2022/05/05 13:29:56;;;;;;;4.60;3.90;;;;;;;23.69;32.97;100055.34;216023;1274;140074;-69
2022/05/05 13:35:00;;;;;;;4.60;4.20;;;;;;;23.60;33.59;100058.11;215307;1274;140436;-71
2022/05/05 13:40:07;;;;;;;4.60;4.20;;;;;;;23.78;34.42;100050.32;215725;1274;140005;-71
2022/05/05 13:45:10;;;;;;;5.30;4.80;;;;;;;23.99;33.56;100047.44;215136;1274;141444;-68
2022/05/05 13:50:13;;;;;;;3.80;3.50;;;;;;;24.09;32.81;100047.38;215948;1274;141614;-68
2022/05/05 13:55:15;;;;;;;4.10;3.80;;;;;;;24.05;32.28;100040.89;214510;1274;141802;-72
2022/05/05 14:00:18;;;;;;;3.80;3.50;;;;;;;24.11;32.28;100037.50;213464;1274;142120;-72
2022/05/05 14:05:23;;;;;;;5.20;3.90;;;;;;;24.28;32.44;100034.67;214023;1274;140449;-75
2022/05/05 14:15:48;;;;;;;66.30;10.70;;;;;;;24.24;31.78;100030.54;213348;1274;140706;-69
2022/05/05 14:20:51;;;;;;;4.50;4.20;;;;;;;24.27;32.01;100030.13;214452;1274;140743;-69
2022/05/05 14:25:54;;;;;;;3.90;3.60;;;;;;;24.34;32.13;100029.23;214168;1274;139883;-69
2022/05/05 14:30:57;;;;;;;5.00;4.30;;;;;;;24.41;32.62;100029.38;213604;1274;141490;-67
2022/05/05 14:36:00;;;;;;;9.00;4.50;;;;;;;24.16;32.45;100034.95;213259;1274;140860;-67
2022/05/05 14:41:04;;;;;;;3.90;3.60;;;;;;;23.93;32.55;100037.26;213048;1274;142040;-68
2022/05/05 14:46:08;;;;;;;4.00;3.60;;;;;;;24.04;32.67;100034.67;213440;1274;141924;-67
2022/05/05 14:51:10;;;;;;;4.40;4.00;;;;;;;24.17;32.48;100033.34;213242;1274;140199;-66
2022/05/05 14:56:13;;;;;;;5.30;3.20;;;;;;;24.23;32.15;100026.38;213374;1274;139832;-72
2022/05/05 15:01:16;;;;;;;6.00;3.80;;;;;;;24.09;31.53;100031.18;215098;1274;140259;-67
2022/05/05 15:06:20;;;;;;;4.70;3.20;;;;;;;23.99;31.73;100028.70;214236;1274;141485;-68
2022/05/05 15:11:25;;;;;;;4.00;3.70;;;;;;;24.01;31.73;100023.64;214730;1274;140693;-68
2022/05/05 15:16:29;;;;;;;4.20;3.30;;;;;;;24.05;31.46;100022.34;215230;1274;142317;-67
2022/05/05 15:21:32;;;;;;;6.00;4.10;;;;;;;24.07;31.91;100027.02;215339;1274;140240;-66
2022/05/05 15:26:35;;;;;;;6.80;4.00;;;;;;;24.13;31.58;100026.79;213720;1274;141242;-67
2022/05/05 15:31:43;;;;;;;3.80;3.50;;;;;;;24.13;31.28;100018.06;215664;1274;142317;-66
2022/05/05 15:36:47;;;;;;;7.00;4.10;;;;;;;23.96;31.60;100013.60;215846;1274;140807;-67
2022/05/05 15:41:49;;;;;;;3.50;3.30;;;;;;;23.89;31.44;100016.04;215871;1273;151107;-66
2022/05/05 15:46:51;;;;;;;3.70;3.40;;;;;;;23.81;31.52;100019.15;215758;1274;141030;-68
2022/05/05 15:51:53;;;;;;;4.90;3.90;;;;;;;23.77;31.05;100016.14;214871;1274;142293;-67
2022/05/05 15:56:59;;;;;;;4.40;4.00;;;;;;;23.76;31.02;100018.42;214403;1274;141064;-67
2022/05/05 16:02:03;;;;;;;5.60;3.60;;;;;;;23.69;30.88;100022.33;213431;1274;141711;-67
2022/05/05 16:07:06;;;;;;;4.70;4.30;;;;;;;23.60;31.17;100024.30;213269;1274;141762;-70
2022/05/05 16:12:10;;;;;;;4.70;3.70;;;;;;;23.56;31.12;100024.86;213711;1274;141236;-66
2022/05/05 16:17:14;;;;;;;4.10;3.80;;;;;;;23.47;31.05;100020.29;213933;1274;140571;-65
2022/05/05 16:22:17;;;;;;;4.60;4.30;;;;;;;23.24;30.82;100021.96;213316;1274;140676;-67
2022/05/05 16:32:44;;;;;;;3.70;3.50;;;;;;;22.86;31.82;100030.17;213538;1274;139950;-70
2022/05/05 16:37:48;;;;;;;3.90;3.50;;;;;;;22.73;33.87;100035.29;214417;1274;140330;-71
2022/05/05 16:42:55;;;;;;;4.70;4.30;;;;;;;22.52;34.15;100030.84;213301;1274;140882;-67
2022/05/05 16:48:00;;;;;;;5.30;4.00;;;;;;;22.37;33.54;100031.55;213431;1274;140654;-66
2022/05/05 16:53:04;;;;;;;8.40;4.80;;;;;;;22.22;33.68;100039.00;214063;1274;140444;-65
2022/05/05 16:58:07;;;;;;;11.10;4.60;;;;;;;22.14;33.76;100039.06;213160;1273;139642;-70
2022/05/05 17:03:11;;;;;;;7.80;4.90;;;;;;;22.03;34.07;100040.95;214551;1277;141446;-66
2022/05/05 17:08:14;;;;;;;4.60;4.20;;;;;;;21.91;34.59;100042.82;213303;1275;141526;-67
2022/05/05 17:13:18;;;;;;;7.20;5.20;;;;;;;21.77;34.90;100043.35;214276;1274;139976;-66
2022/05/05 17:18:21;;;;;;;11.80;5.70;;;;;;;21.63;35.24;100045.49;215051;1274;233257;-70
2022/05/05 17:23:25;;;;;;;11.20;4.60;;;;;;;21.49;36.00;100048.29;215199;1274;140117;-68
2022/05/05 17:28:28;;;;;;;10.20;5.10;;;;;;;21.33;37.27;100056.77;216108;1274;142358;-68
2022/05/05 17:33:31;;;;;;;11.70;5.20;;;;;;;21.16;38.06;100059.21;216005;1274;141429;-71
2022/05/05 17:38:38;;;;;;;8.70;5.60;;;;;;;21.00;38.69;100063.98;215487;1274;141479;-71
2022/05/05 17:43:41;;;;;;;8.40;5.20;;;;;;;20.84;39.02;100070.02;215904;1274;139839;-67
2022/05/05 17:54:07;;;;;;;7.60;6.40;;;;;;;20.24;40.23;100111.98;215109;1274;140604;-67
2022/05/05 17:59:11;;;;;;;8.80;4.90;;;;;;;19.73;41.26;100117.46;213681;1274;142306;-66
2022/05/05 18:04:15;;;;;;;5.90;5.10;;;;;;;19.34;42.35;100125.89;214649;1274;141342;-66
2022/05/05 18:09:39;;;;;;;7.00;6.00;;;;;;;19.01;43.38;100133.45;214116;1274;141146;-68
2022/05/05 18:14:42;;;;;;;12.00;6.30;;;;;;;18.77;44.21;100132.02;213553;1274;141761;-67
2022/05/05 18:19:44;;;;;;;6.60;6.00;;;;;;;18.57;44.85;100129.27;214581;1274;140624;-67
2022/05/05 18:24:49;;;;;;;10.20;6.90;;;;;;;18.40;45.80;100137.30;213987;1274;142284;-65
2022/05/05 18:29:55;;;;;;;7.70;7.00;;;;;;;18.28;46.48;100137.75;213963;1274;233836;-65
2022/05/05 18:35:00;;;;;;;13.50;7.50;;;;;;;18.15;46.97;100142.74;213249;1274;141298;-66
2022/05/05 18:40:05;;;;;;;12.30;7.90;;;;;;;18.03;47.47;100150.27;214386;1274;142573;-68
2022/05/05 18:45:08;;;;;;;10.30;8.40;;;;;;;17.92;48.02;100146.48;213798;1274;141790;-68
2022/05/05 18:50:12;;;;;;;12.00;8.90;;;;;;;17.78;48.17;100149.52;213640;1274;141642;-67
2022/05/05 18:55:14;;;;;;;9.30;8.40;;;;;;;17.65;48.52;100155.19;214347;1274;141301;-71
2022/05/05 19:00:18;;;;;;;9.60;8.60;;;;;;;17.53;48.80;100154.84;213725;1274;142507;-71
2022/05/05 19:05:22;;;;;;;8.40;7.20;;;;;;;17.41;49.21;100161.05;213552;1274;141131;-66
2022/05/05 19:10:25;;;;;;;10.30;8.50;;;;;;;17.30;49.68;100177.11;215041;1274;141339;-69
2022/05/05 19:15:27;;;;;;;15.20;10.30;;;;;;;17.22;50.03;100186.95;213731;1274;141650;-68
2022/05/05 19:20:33;;;;;;;10.30;9.00;;;;;;;17.14;50.44;100194.98;214303;1274;142059;-67
2022/05/05 19:25:37;;;;;;;15.60;9.40;;;;;;;17.07;50.78;100198.25;216009;1274;141749;-68
2022/05/05 19:30:43;;;;;;;13.10;8.90;;;;;;;16.99;51.17;100202.38;215590;1274;141523;-69
2022/05/05 19:35:46;;;;;;;13.20;10.10;;;;;;;16.93;51.47;100204.13;216080;1274;142048;-68
2022/05/05 19:40:49;;;;;;;11.10;10.00;;;;;;;16.87;51.83;100206.31;215506;1274;141843;-68
2022/05/05 19:45:52;;;;;;;12.70;9.60;;;;;;;16.80;52.02;100210.19;215662;1276;142190;-67
2022/05/05 19:50:55;;;;;;;14.00;9.30;;;;;;;16.77;52.34;100209.37;214739;1274;511883;-69
2022/05/05 20:01:23;;;;;;;11.30;7.60;;;;;;;16.65;52.71;100212.75;213895;1274;140463;-68
2022/05/05 20:11:48;;;;;;;8.80;7.90;;;;;;;16.47;53.29;100220.14;215200;1274;141859;-68
2022/05/05 20:16:52;;;;;;;8.60;7.80;;;;;;;16.38;53.63;100222.61;214698;1274;140344;-67
2022/05/05 20:21:56;;;;;;;11.30;10.10;;;;;;;16.29;53.83;100224.48;213648;1274;140953;-72
2022/05/05 20:26:59;;;;;;;13.30;9.20;;;;;;;16.20;54.07;100227.02;214029;1274;140361;-70
2022/05/05 20:32:07;;;;;;;10.60;8.40;;;;;;;16.09;54.40;100229.42;213707;1274;140806;-70
2022/05/05 20:37:11;;;;;;;11.90;8.20;;;;;;;15.96;54.63;100236.75;214229;1274;139901;-68
2022/05/05 20:42:18;;;;;;;10.80;9.00;;;;;;;15.90;54.91;100242.14;213724;1274;140938;-69
2022/05/05 20:47:26;;;;;;;9.40;8.60;;;;;;;15.85;55.01;100243.19;213528;1276;142125;-69
2022/05/05 20:52:34;;;;;;;9.10;8.20;;;;;;;15.82;55.17;100247.89;214581;1274;139871;-70
2022/05/05 20:57:37;;;;;;;8.60;7.70;;;;;;;15.78;55.47;100253.49;213825;1274;141650;-70
2022/05/05 21:02:40;;;;;;;11.00;8.00;;;;;;;15.72;55.68;100258.23;213771;1275;141289;-67
2022/05/05 21:07:44;;;;;;;9.10;8.30;;;;;;;15.66;55.87;100259.95;214336;1274;140985;-68
2022/05/05 21:12:48;;;;;;;9.40;7.90;;;;;;;15.63;56.02;100263.79;215071;1274;140774;-68
2022/05/05 21:17:51;;;;;;;9.20;8.30;;;;;;;15.60;55.95;100266.08;214800;1274;140211;-70
2022/05/05 21:28:14;;;;;;;8.70;7.80;;;;;;;15.53;56.55;100268.02;213530;1274;140224;-73
2022/05/05 21:33:17;;;;;;;8.60;7.60;;;;;;;15.52;56.65;100269.41;216068;1274;139904;-70
2022/05/05 21:38:20;;;;;;;10.50;8.50;;;;;;;15.51;56.87;100275.48;215928;1274;140512;-71
2022/05/05 21:43:25;;;;;;;13.20;10.40;;;;;;;15.52;56.97;100278.44;215857;1274;140706;-71
2022/05/05 21:48:28;;;;;;;10.90;9.40;;;;;;;15.51;57.09;100270.36;215798;1274;141243;-67
2022/05/05 21:53:31;;;;;;;10.30;9.20;;;;;;;15.45;57.24;100274.30;215267;1274;141726;-68
2022/05/05 21:58:34;;;;;;;11.00;8.80;;;;;;;15.41;57.43;100281.92;214144;1274;142958;-72
2022/05/05 22:03:38;;;;;;;12.10;8.40;;;;;;;15.40;57.63;100278.31;214296;1274;141524;-72
2022/05/05 22:08:41;;;;;;;9.30;8.40;;;;;;;15.38;57.61;100283.30;214536;1274;141310;-71
2022/05/05 22:13:45;;;;;;;12.50;8.40;;;;;;;15.37;57.80;100286.45;213772;1274;141603;-68
2022/05/05 22:18:48;;;;;;;9.40;8.30;;;;;;;15.32;57.91;100284.73;214270;1274;141925;-70
2022/05/05 22:23:50;;;;;;;9.70;8.70;;;;;;;15.28;58.12;100280.29;214101;1274;142251;-70
2022/05/05 22:28:54;;;;;;;9.80;8.80;;;;;;;15.23;58.41;100273.36;213391;1274;142366;-69
2022/05/05 22:33:58;;;;;;;13.80;9.90;;;;;;;15.16;58.44;100269.30;213576;1274;140954;-71
2022/05/05 22:39:02;;;;;;;9.80;9.00;;;;;;;15.07;58.69;100267.21;213289;1274;142635;-68
2022/05/05 22:44:05;;;;;;;11.10;10.00;;;;;;;15.01;58.79;100268.09;214396;1274;141235;-67
2022/05/05 22:54:39;;;;;;;10.80;9.70;;;;;;;14.90;59.35;100265.84;213801;1274;142546;-73
2022/05/05 22:59:42;;;;;;;10.10;9.10;;;;;;;14.86;59.61;100258.70;213940;1274;141246;-70
2022/05/05 23:04:48;;;;;;;11.80;10.70;;;;;;;14.81;59.68;100254.71;214542;1274;141126;-72
2022/05/05 23:09:51;;;;;;;13.60;12.20;;;;;;;14.74;59.83;100256.07;213579;1274;141429;-69
2022/05/05 23:14:55;;;;;;;13.40;11.60;;;;;;;14.68;60.15;100256.55;214805;1273;141882;-71
2022/05/05 23:19:59;;;;;;;16.80;12.90;;;;;;;14.66;60.23;100259.05;214307;1274;142488;-72
2022/05/05 23:25:03;;;;;;;12.50;10.30;;;;;;;14.62;60.33;100264.46;215483;1274;141310;-72
2022/05/05 23:30:06;;;;;;;16.20;11.10;;;;;;;14.52;60.52;100267.54;215774;1274;142440;-71
2022/05/05 23:40:30;;;;;;;13.00;11.60;;;;;;;14.39;60.72;100268.90;215984;1272;140588;-73
2022/05/05 23:45:33;;;;;;;12.00;10.50;;;;;;;14.34;61.05;100267.31;215995;1274;140687;-71
2022/05/05 23:50:36;;;;;;;13.20;11.40;;;;;;;14.26;61.22;100257.92;214680;1274;140909;-67
2022/05/05 23:55:42;;;;;;;14.00;11.00;;;;;;;14.21;61.42;100259.77;214467;1274;140721;-68
